Dona Euzebia, Brazil
Current Conditions -  °F | °C
As of 7:00 PM on Saturday 20 Dec 2014 (Local Time) from SBBQ Reporting Station
Broken Clouds Broken Clouds  
Wind Chill: 72°   Ceiling: 3000
Heat Index: 72°   Visibility: 6mi
Dew Point: 66°   Wind: 3mph
Humidity: 83%   Direction: 280°W
Pressure: 30.03"   Gusts: NA
Location:  21.32°S, 42.81°W
Report Text: SBBQ 202100Z 28003KT 9999 BKN030 22/19 Q1017 RETS
Loading
Personal Weather Stations






























Interactive Weather Map New forecast layout! Learn more

10-Day Weather Forecast

Advertisements
Track Severe Weather on mobile